Time;durP1;ratioP1;P1;durP2;ratioP2;P2;SDS_P1;SDS_P2;PMS_P1;PMS_P2;Temp;Humidity;BMP_temperature;BMP_pressure;BME280_temperature;BME280_humidity;BME280_pressure;Samples;Min_cycle;Max_cycle;Signal;HPM_P1;HPM_P2
2023/08/01 00:01:39;;;;;;;0.40;0.30;;;18.90;99.90;;;;;;4995071;28;20290;-73
2023/08/01 00:04:07;;;;;;;0.50;0.38;;;18.90;99.90;;;;;;4995139;28;20262;-72
2023/08/01 00:06:33;;;;;;;0.22;0.20;;;18.90;99.90;;;;;;4995241;28;20220;-71
2023/08/01 00:09:03;;;;;;;0.50;0.30;;;18.90;99.90;;;;;;4995242;28;20207;-71
2023/08/01 00:11:31;;;;;;;0.47;0.28;;;19.00;99.90;;;;;;4994767;28;20394;-73
2023/08/01 00:13:57;;;;;;;0.57;0.30;;;19.00;99.90;;;;;;4996147;28;20174;-72
2023/08/01 00:16:24;;;;;;;0.40;0.30;;;19.00;99.90;;;;;;4994905;28;20195;-74
2023/08/01 00:18:52;;;;;;;0.93;0.20;;;19.00;99.90;;;;;;4994908;28;20233;-72
2023/08/01 00:21:24;;;;;;;0.82;0.30;;;19.00;99.90;;;;;;4994888;28;20177;-72
2023/08/01 00:23:49;;;;;;;0.63;0.20;;;19.00;99.90;;;;;;4994658;28;20189;-72
2023/08/01 00:26:15;;;;;;;0.25;0.20;;;18.90;99.90;;;;;;4994915;28;20175;-70
2023/08/01 00:28:40;;;;;;;0.40;0.40;;;18.90;99.90;;;;;;4991358;28;20203;-72
2023/08/01 00:31:09;;;;;;;0.35;0.20;;;18.90;99.90;;;;;;4975494;28;20172;-71
2023/08/01 00:33:37;;;;;;;0.45;0.38;;;18.90;99.90;;;;;;4975544;28;20172;-73
2023/08/01 00:36:03;;;;;;;1.02;0.35;;;18.90;99.90;;;;;;4975443;28;20207;-73
2023/08/01 00:38:28;;;;;;;0.30;0.30;;;18.90;99.90;;;;;;4975282;28;20220;-74
2023/08/01 00:40:54;;;;;;;0.32;0.20;;;18.90;99.90;;;;;;4975577;28;20200;-72
2023/08/01 00:43:22;;;;;;;0.75;0.50;;;18.90;99.90;;;;;;4987564;28;20253;-73
2023/08/01 00:45:48;;;;;;;1.77;0.38;;;18.90;99.90;;;;;;4994847;28;20163;-73
2023/08/01 00:48:14;;;;;;;0.40;0.32;;;18.90;99.90;;;;;;4994400;28;20211;-73
2023/08/01 00:50:42;;;;;;;0.35;0.30;;;18.90;99.90;;;;;;4994542;28;20207;-72
2023/08/01 00:53:11;;;;;;;1.40;0.38;;;18.90;99.90;;;;;;4994475;28;20268;-72
2023/08/01 00:55:37;;;;;;;1.08;0.50;;;18.90;99.90;;;;;;4994643;28;20171;-72
2023/08/01 00:58:05;;;;;;;0.25;0.20;;;18.90;99.90;;;;;;4994699;28;20172;-73
2023/08/01 01:00:31;;;;;;;0.68;0.40;;;19.00;99.90;;;;;;4990930;28;20341;-73
2023/08/01 01:02:56;;;;;;;1.20;0.60;;;19.00;99.90;;;;;;4991294;28;20203;-72
2023/08/01 01:05:26;;;;;;;0.63;0.45;;;19.00;99.90;;;;;;4994258;28;20176;-73
2023/08/01 01:07:55;;;;;;;0.70;0.50;;;19.00;99.90;;;;;;4994991;28;20183;-70
2023/08/01 01:10:23;;;;;;;0.40;0.30;;;19.00;99.90;;;;;;4995159;28;20208;-72
2023/08/01 01:12:50;;;;;;;0.30;0.30;;;19.00;99.90;;;;;;4994915;28;20258;-72
2023/08/01 01:15:15;;;;;;;0.47;0.40;;;19.00;99.90;;;;;;4978883;28;20206;-71
2023/08/01 01:17:43;;;;;;;0.70;0.50;;;19.00;99.90;;;;;;4994122;28;20175;-72
2023/08/01 01:20:09;;;;;;;1.58;0.50;;;19.00;99.90;;;;;;4997885;28;20222;-72
2023/08/01 01:22:38;;;;;;;1.05;0.70;;;19.10;99.90;;;;;;4999158;28;20183;-73
2023/08/01 01:25:06;;;;;;;1.02;0.60;;;19.10;99.90;;;;;;4998732;28;20250;-72
2023/08/01 01:27:33;;;;;;;0.60;0.50;;;19.10;99.90;;;;;;4998091;28;20263;-72
2023/08/01 01:30:00;;;;;;;1.05;0.60;;;19.10;99.90;;;;;;4997718;28;20234;-72
2023/08/01 01:32:30;;;;;;;1.55;0.50;;;19.10;99.90;;;;;;4998430;28;20175;-71
2023/08/01 01:34:56;;;;;;;0.60;0.45;;;19.10;99.90;;;;;;4994407;28;20476;-71
2023/08/01 01:37:21;;;;;;;0.80;0.50;;;19.10;99.90;;;;;;4978344;28;20172;-71
2023/08/01 01:39:49;;;;;;;0.90;0.45;;;19.20;99.90;;;;;;4978486;28;20180;-70
2023/08/01 01:42:14;;;;;;;1.35;0.50;;;19.20;99.90;;;;;;4978333;28;20171;-71
2023/08/01 01:44:40;;;;;;;1.77;0.50;;;19.20;99.90;;;;;;4978335;28;20183;-71
2023/08/01 01:47:06;;;;;;;1.05;0.40;;;19.20;99.90;;;;;;4978288;28;20200;-70
2023/08/01 01:49:32;;;;;;;0.98;0.50;;;19.20;99.90;;;;;;4983952;28;20203;-69
2023/08/01 01:52:00;;;;;;;1.40;0.40;;;19.20;99.90;;;;;;4997544;28;20202;-69
2023/08/01 01:54:25;;;;;;;0.70;0.43;;;19.10;99.90;;;;;;5013981;28;20266;-69
2023/08/01 01:56:51;;;;;;;0.38;0.32;;;19.10;99.90;;;;;;5013755;28;20262;-70
2023/08/01 01:59:21;;;;;;;0.30;0.30;;;19.00;99.90;;;;;;4997501;28;20224;-69
2023/08/01 02:01:47;;;;;;;0.93;0.50;;;19.00;99.90;;;;;;4997340;28;20218;-70
2023/08/01 02:04:12;;;;;;;0.43;0.32;;;18.90;99.90;;;;;;4997288;28;20177;-69
2023/08/01 02:06:40;;;;;;;1.38;0.32;;;18.80;99.90;;;;;;4993186;28;20210;-70
2023/08/01 02:09:09;;;;;;;0.10;0.10;;;18.80;99.90;;;;;;4993961;28;20200;-70
2023/08/01 02:11:34;;;;;;;0.55;0.30;;;18.80;99.90;;;;;;4994901;28;20176;-67
2023/08/01 02:14:03;;;;;;;0.55;0.50;;;18.80;99.90;;;;;;4994147;28;20180;-67
2023/08/01 02:16:30;;;;;;;0.70;0.38;;;18.70;99.90;;;;;;4992987;28;20169;-67
2023/08/01 02:19:01;;;;;;;0.30;0.30;;;18.70;99.90;;;;;;4993608;28;20195;-66
2023/08/01 02:21:29;;;;;;;0.70;0.40;;;18.70;99.90;;;;;;4997046;28;20175;-66
2023/08/01 02:23:54;;;;;;;0.25;0.20;;;18.70;99.90;;;;;;4992873;28;20195;-66
2023/08/01 02:26:22;;;;;;;0.30;0.30;;;18.70;99.90;;;;;;4977468;28;20184;-66
2023/08/01 02:28:52;;;;;;;0.57;0.28;;;18.70;99.90;;;;;;4977259;28;20215;-66
2023/08/01 02:31:19;;;;;;;0.40;0.28;;;18.70;99.90;;;;;;4977471;28;20461;-66
2023/08/01 02:33:47;;;;;;;0.25;0.20;;;18.70;99.90;;;;;;4977312;28;20196;-67
2023/08/01 02:36:14;;;;;;;0.20;0.20;;;18.70;99.90;;;;;;4977392;28;20172;-66
2023/08/01 02:38:43;;;;;;;0.40;0.30;;;18.70;99.90;;;;;;4976830;28;20359;-66
2023/08/01 02:41:11;;;;;;;0.30;0.28;;;18.80;99.90;;;;;;4977197;28;20180;-66
2023/08/01 02:43:36;;;;;;;0.20;0.20;;;18.80;99.90;;;;;;4977091;28;20180;-66
2023/08/01 02:46:05;;;;;;;0.77;0.32;;;18.80;99.90;;;;;;4977376;28;20387;-66
2023/08/01 02:48:35;;;;;;;0.40;0.40;;;18.80;99.90;;;;;;4976775;28;20210;-66
2023/08/01 02:51:04;;;;;;;0.50;0.40;;;18.80;99.90;;;;;;4977089;28;20175;-66
2023/08/01 02:53:29;;;;;;;0.38;0.30;;;18.70;99.90;;;;;;4977230;28;20183;-66
2023/08/01 02:55:57;;;;;;;1.00;0.55;;;18.70;99.90;;;;;;4977087;28;20180;-66
2023/08/01 02:58:23;;;;;;;1.65;0.60;;;18.70;99.90;;;;;;4977246;28;20424;-66
2023/08/01 03:00:51;;;;;;;0.80;0.50;;;18.70;99.90;;;;;;4977007;28;20295;-66
2023/08/01 03:03:19;;;;;;;1.02;0.55;;;18.60;99.90;;;;;;4976904;28;20176;-66
2023/08/01 03:05:47;;;;;;;0.50;0.50;;;18.60;99.90;;;;;;4976820;28;20286;-64
2023/08/01 03:08:13;;;;;;;0.82;0.60;;;18.60;99.90;;;;;;4976633;28;20176;-66
2023/08/01 03:10:41;;;;;;;0.45;0.45;;;18.50;99.90;;;;;;4977343;28;20230;-68
2023/08/01 03:13:07;;;;;;;1.13;0.93;;;18.50;99.90;;;;;;4985487;28;20198;-66
2023/08/01 03:15:37;;;;;;;1.60;1.30;;;18.50;99.90;;;;;;4977608;28;20196;-66
2023/08/01 03:18:05;;;;;;;1.40;0.95;;;18.40;99.90;;;;;;4979478;28;20170;-66
2023/08/01 03:20:31;;;;;;;4.35;2.53;;;18.40;99.90;;;;;;4977278;28;20176;-65
2023/08/01 03:22:56;;;;;;;2.00;1.42;;;18.30;99.90;;;;;;4976647;28;20267;-66
2023/08/01 03:25:22;;;;;;;1.55;1.10;;;18.30;99.90;;;;;;4977123;28;20183;-66
2023/08/01 03:27:50;;;;;;;1.50;1.10;;;18.30;99.90;;;;;;4977043;28;20267;-66
2023/08/01 03:30:15;;;;;;;1.45;1.08;;;18.20;99.90;;;;;;4976452;28;20203;-66
2023/08/01 03:32:41;;;;;;;1.05;0.65;;;18.20;99.90;;;;;;4992428;28;20218;-66
2023/08/01 03:35:07;;;;;;;3.10;1.60;;;18.10;99.90;;;;;;4991984;28;20176;-65
2023/08/01 03:37:35;;;;;;;2.17;1.30;;;18.10;99.90;;;;;;4992385;28;20258;-66
2023/08/01 03:40:03;;;;;;;1.75;1.42;;;18.10;99.90;;;;;;4992427;28;20267;-65
2023/08/01 03:42:29;;;;;;;1.02;0.93;;;18.10;99.90;;;;;;4992460;28;20196;-66
2023/08/01 03:44:57;;;;;;;1.20;1.10;;;18.00;99.90;;;;;;4995485;28;20194;-65
2023/08/01 03:47:22;;;;;;;1.65;1.02;;;18.00;99.90;;;;;;4995499;28;20198;-65
2023/08/01 03:49:50;;;;;;;2.35;1.10;;;18.00;99.90;;;;;;4995320;28;20233;-64
2023/08/01 03:52:16;;;;;;;2.00;1.00;;;18.00;99.90;;;;;;4995392;28;20202;-66
2023/08/01 03:54:41;;;;;;;1.00;0.85;;;18.00;99.90;;;;;;4995667;28;20174;-66
2023/08/01 03:57:10;;;;;;;1.02;0.85;;;18.00;99.90;;;;;;4995684;28;20175;-66
2023/08/01 03:59:38;;;;;;;1.15;0.80;;;17.90;99.90;;;;;;4995519;28;20202;-66
2023/08/01 04:02:06;;;;;;;1.30;0.90;;;17.90;99.90;;;;;;4991132;28;20305;-65
2023/08/01 04:04:32;;;;;;;1.42;1.15;;;17.90;99.90;;;;;;4975875;28;20176;-64
2023/08/01 04:07:00;;;;;;;1.67;0.95;;;17.90;99.90;;;;;;4976081;28;20266;-65
2023/08/01 04:09:25;;;;;;;1.65;0.90;;;17.90;99.90;;;;;;4975696;28;20204;-66
2023/08/01 04:11:51;;;;;;;1.58;1.15;;;17.90;99.90;;;;;;4975420;28;20178;-65
2023/08/01 04:14:17;;;;;;;2.38;1.10;;;17.90;99.90;;;;;;4975174;28;20196;-65
2023/08/01 04:16:44;;;;;;;1.40;1.30;;;17.90;99.90;;;;;;4975705;28;20264;-66
2023/08/01 04:19:13;;;;;;;2.35;1.13;;;17.90;99.90;;;;;;4983061;28;20207;-65
2023/08/01 04:21:38;;;;;;;2.00;1.20;;;17.90;99.90;;;;;;4991406;28;20176;-65
2023/08/01 04:24:06;;;;;;;1.30;1.20;;;17.90;99.90;;;;;;4991800;28;20271;-66
2023/08/01 04:26:32;;;;;;;1.67;1.20;;;17.80;99.90;;;;;;4991765;28;20263;-65
2023/08/01 04:29:00;;;;;;;1.60;1.25;;;17.90;99.90;;;;;;4991389;28;20306;-66
2023/08/01 04:31:26;;;;;;;2.08;1.60;;;17.90;99.90;;;;;;4991882;28;20184;-65
2023/08/01 04:33:51;;;;;;;2.17;1.75;;;17.90;99.90;;;;;;4991595;28;20268;-64
2023/08/01 04:36:17;;;;;;;5.57;1.80;;;17.90;99.90;;;;;;4986591;28;20218;-66
2023/08/01 04:38:45;;;;;;;2.60;2.00;;;17.90;99.90;;;;;;4975673;28;20203;-65
2023/08/01 04:41:10;;;;;;;2.92;1.73;;;17.90;99.90;;;;;;4979579;28;20175;-65
2023/08/01 04:43:36;;;;;;;2.92;1.95;;;17.80;99.90;;;;;;5008902;28;20246;-66
2023/08/01 04:46:01;;;;;;;2.42;1.92;;;17.90;99.90;;;;;;5018816;28;20178;-65
2023/08/01 04:48:29;;;;;;;3.70;2.22;;;17.90;99.90;;;;;;5018570;28;20197;-64
2023/08/01 04:50:59;;;;;;;4.10;2.30;;;17.90;99.90;;;;;;5018378;28;20236;-65
2023/08/01 04:53:28;;;;;;;2.85;2.33;;;17.90;99.90;;;;;;5008463;28;20156;-65
2023/08/01 04:55:53;;;;;;;2.15;1.77;;;17.90;99.90;;;;;;4998483;28;20256;-65
2023/08/01 04:58:19;;;;;;;2.58;2.00;;;17.90;99.90;;;;;;4998577;28;20202;-65
2023/08/01 05:00:44;;;;;;;3.25;2.28;;;17.80;99.90;;;;;;4998438;28;20202;-65
2023/08/01 05:03:15;;;;;;;3.22;2.22;;;17.80;99.90;;;;;;5015039;28;20269;-65
2023/08/01 05:05:40;;;;;;;3.30;2.10;;;17.80;99.90;;;;;;4998577;28;20179;-65
2023/08/01 05:08:08;;;;;;;2.28;1.98;;;17.80;99.90;;;;;;4998692;28;20186;-64
2023/08/01 05:10:34;;;;;;;4.32;2.03;;;17.70;99.90;;;;;;4997886;28;20214;-64
2023/08/01 05:12:59;;;;;;;4.07;1.70;;;17.70;99.90;;;;;;4998713;28;20171;-65
2023/08/01 05:15:25;;;;;;;3.03;2.05;;;17.60;99.90;;;;;;4998836;28;20171;-65
2023/08/01 05:17:52;;;;;;;5.15;2.22;;;17.50;99.90;;;;;;5014437;28;20204;-65
2023/08/01 05:20:19;;;;;;;3.88;2.25;;;17.40;99.90;;;;;;5014310;28;20226;-65
2023/08/01 05:22:45;;;;;;;2.80;2.20;;;17.40;99.90;;;;;;4998053;28;20211;-65
2023/08/01 05:25:11;;;;;;;3.45;2.00;;;17.30;99.90;;;;;;4998160;28;20184;-64
2023/08/01 05:27:41;;;;;;;2.85;2.10;;;17.30;99.90;;;;;;4994489;28;20203;-64
2023/08/01 05:30:08;;;;;;;2.85;2.10;;;17.30;99.90;;;;;;4978651;28;20196;-65
2023/08/01 05:32:33;;;;;;;2.33;1.75;;;17.30;99.90;;;;;;4978442;28;20291;-65
2023/08/01 05:34:59;;;;;;;2.28;1.90;;;17.30;99.90;;;;;;4978361;28;20264;-64
2023/08/01 05:37:24;;;;;;;2.75;2.30;;;17.30;99.90;;;;;;4997799;28;20297;-65
2023/08/01 05:39:50;;;;;;;3.08;2.28;;;17.30;99.90;;;;;;4998024;28;20179;-65
2023/08/01 05:42:16;;;;;;;5.07;2.15;;;17.30;99.90;;;;;;4997833;28;20179;-64
2023/08/01 05:44:41;;;;;;;3.38;2.10;;;17.30;99.90;;;;;;4997540;28;20202;-65
2023/08/01 05:47:07;;;;;;;2.60;2.00;;;17.30;99.90;;;;;;4997829;28;20179;-65
2023/08/01 05:49:32;;;;;;;3.63;2.47;;;17.30;99.90;;;;;;5013883;28;20294;-63
2023/08/01 05:52:00;;;;;;;4.43;2.30;;;17.30;99.90;;;;;;4996340;28;20239;-64
2023/08/01 05:54:26;;;;;;;3.10;2.28;;;17.30;99.90;;;;;;4997316;28;20186;-65
2023/08/01 05:56:54;;;;;;;4.05;2.42;;;17.30;99.90;;;;;;4997820;28;20172;-64
2023/08/01 05:59:22;;;;;;;2.92;2.08;;;17.30;99.90;;;;;;4997528;28;20199;-65
2023/08/01 06:01:47;;;;;;;3.50;2.08;;;17.40;99.90;;;;;;4997094;28;20183;-64
2023/08/01 06:04:15;;;;;;;3.67;2.42;;;17.40;99.90;;;;;;4997607;28;20195;-65
2023/08/01 06:06:41;;;;;;;3.25;2.30;;;17.50;99.90;;;;;;4997174;28;20182;-65
2023/08/01 06:09:07;;;;;;;4.32;2.25;;;17.60;99.90;;;;;;4996884;28;20207;-65
2023/08/01 06:11:35;;;;;;;3.22;2.47;;;17.60;99.90;;;;;;4997402;28;20181;-65
2023/08/01 06:14:03;;;;;;;3.00;2.13;;;17.70;99.90;;;;;;4997102;28;20172;-64
2023/08/01 06:16:33;;;;;;;3.17;2.10;;;17.80;99.90;;;;;;4997085;28;20176;-64
2023/08/01 06:18:59;;;;;;;3.58;2.25;;;17.90;99.90;;;;;;4997311;28;20203;-64
2023/08/01 06:21:25;;;;;;;2.10;1.90;;;17.90;99.90;;;;;;4997135;28;20186;-65
2023/08/01 06:23:50;;;;;;;2.85;2.10;;;18.00;99.90;;;;;;4996782;28;20176;-65
2023/08/01 06:26:16;;;;;;;3.00;2.03;;;18.10;99.90;;;;;;4996837;28;20176;-65
2023/08/01 06:28:42;;;;;;;3.70;2.28;;;18.20;99.90;;;;;;4996787;28;20186;-65
2023/08/01 06:31:10;;;;;;;3.40;2.28;;;18.30;99.90;;;;;;4996974;28;20168;-65
2023/08/01 06:33:36;;;;;;;4.00;2.47;;;18.30;99.90;;;;;;4989284;28;20168;-65
2023/08/01 06:36:01;;;;;;;2.67;2.08;;;18.40;99.90;;;;;;4977240;28;20211;-65
2023/08/01 06:38:27;;;;;;;2.90;2.15;;;18.50;99.90;;;;;;4977410;28;20191;-64
2023/08/01 06:40:57;;;;;;;3.53;2.47;;;18.60;99.90;;;;;;4977220;28;20200;-65
2023/08/01 06:43:25;;;;;;;3.05;2.03;;;18.60;99.90;;;;;;5003990;28;20472;-65
2023/08/01 06:45:53;;;;;;;3.50;2.40;;;18.70;99.90;;;;;;5007211;28;20207;-64
2023/08/01 06:48:23;;;;;;;3.65;2.97;;;18.80;99.90;;;;;;4996351;28;20211;-64
2023/08/01 06:50:49;;;;;;;5.75;3.58;;;18.80;99.90;;;;;;4996010;28;20203;-63
2023/08/01 06:53:14;;;;;;;4.47;2.80;;;18.80;99.90;;;;;;4996648;28;20234;-63
2023/08/01 06:55:40;;;;;;;3.50;2.20;;;18.80;99.90;;;;;;4996328;28;20182;-64
2023/08/01 06:58:06;;;;;;;4.38;2.30;;;18.80;99.90;;;;;;4996229;28;20183;-64
2023/08/01 07:00:32;;;;;;;5.10;2.65;;;18.80;99.90;;;;;;4996272;28;20185;-65
2023/08/01 07:02:59;;;;;;;4.72;2.50;;;18.80;99.90;;;;;;4992424;28;20200;-64
2023/08/01 07:05:25;;;;;;;4.88;2.50;;;18.90;99.90;;;;;;4992657;28;20180;-64
2023/08/01 07:07:51;;;;;;;7.63;3.08;;;18.90;99.90;;;;;;4976696;28;20223;-64
2023/08/01 07:10:16;;;;;;;5.72;2.92;;;18.90;99.90;;;;;;4992755;28;20191;-65
2023/08/01 07:12:44;;;;;;;6.80;3.15;;;18.90;99.90;;;;;;4977124;28;20188;-64
2023/08/01 07:15:12;;;;;;;5.32;3.00;;;18.90;99.90;;;;;;4977677;28;20172;-64
2023/08/01 07:17:38;;;;;;;4.03;2.85;;;19.00;99.90;;;;;;4976459;28;20210;-64
2023/08/01 07:20:04;;;;;;;4.53;2.72;;;19.00;99.90;;;;;;4976571;28;20180;-64
2023/08/01 07:22:30;;;;;;;5.78;2.85;;;19.10;99.90;;;;;;4976538;28;20297;-64
2023/08/01 07:24:55;;;;;;;5.18;2.72;;;19.20;99.90;;;;;;4976381;28;20175;-64
2023/08/01 07:27:21;;;;;;;7.15;3.05;;;19.20;99.90;;;;;;4976291;28;20216;-64
2023/08/01 07:29:47;;;;;;;4.18;2.90;;;19.20;99.90;;;;;;4976191;28;20211;-64
2023/08/01 07:32:15;;;;;;;5.60;3.67;;;19.20;99.90;;;;;;4976289;28;20180;-63
2023/08/01 07:34:41;;;;;;;4.68;3.38;;;19.20;99.90;;;;;;4976389;28;20172;-63
2023/08/01 07:37:06;;;;;;;4.88;3.40;;;19.20;99.90;;;;;;4988488;28;20204;-63
2023/08/01 07:39:34;;;;;;;6.72;4.43;;;19.10;99.90;;;;;;4995792;28;20211;-64
2023/08/01 07:42:03;;;;;;;4.85;3.53;;;19.00;99.90;;;;;;4995668;28;20179;-64
2023/08/01 07:44:29;;;;;;;4.90;3.28;;;18.90;99.90;;;;;;4995567;28;20203;-63
2023/08/01 07:46:57;;;;;;;4.53;3.30;;;18.90;99.90;;;;;;4995501;28;20175;-63
2023/08/01 07:49:22;;;;;;;3.78;2.90;;;18.80;99.90;;;;;;4995287;28;20322;-64
2023/08/01 07:51:51;;;;;;;4.55;2.88;;;18.80;99.90;;;;;;4995193;28;20443;-64
2023/08/01 07:54:19;;;;;;;3.85;3.00;;;18.80;99.90;;;;;;4994836;28;20210;-64
2023/08/01 07:56:48;;;;;;;6.10;2.92;;;18.80;99.90;;;;;;5011685;28;20201;-63
2023/08/01 07:59:14;;;;;;;4.07;2.53;;;18.80;99.90;;;;;;5011973;28;20186;-64
2023/08/01 08:01:44;;;;;;;5.05;3.20;;;18.80;99.90;;;;;;4995617;28;20179;-64
2023/08/01 08:04:10;;;;;;;4.40;3.17;;;18.90;99.90;;;;;;4995468;28;20183;-64
2023/08/01 08:06:36;;;;;;;4.28;3.20;;;18.90;99.90;;;;;;4995503;28;20182;-63
2023/08/01 08:09:02;;;;;;;5.20;3.30;;;18.90;99.90;;;;;;4995135;28;20210;-64
2023/08/01 08:11:27;;;;;;;4.63;3.00;;;19.00;99.90;;;;;;4991028;28;20203;-64
2023/08/01 08:13:53;;;;;;;4.88;3.05;;;19.00;99.90;;;;;;4991186;28;20484;-64
2023/08/01 08:16:21;;;;;;;4.40;3.17;;;19.10;99.90;;;;;;4991589;28;20294;-64
2023/08/01 08:18:47;;;;;;;6.53;3.53;;;19.20;99.90;;;;;;4991824;28;20219;-63
2023/08/01 08:21:17;;;;;;;6.70;4.18;;;19.20;99.90;;;;;;4991673;28;20208;-62
2023/08/01 08:23:42;;;;;;;7.15;3.88;;;19.40;99.90;;;;;;4992146;28;20187;-64
2023/08/01 08:26:11;;;;;;;6.85;3.88;;;19.40;99.90;;;;;;4991326;28;20204;-63
2023/08/01 08:28:36;;;;;;;5.35;3.70;;;19.40;99.90;;;;;;4991290;28;20175;-64
2023/08/01 08:31:03;;;;;;;7.13;3.85;;;19.40;99.90;;;;;;4991564;28;20223;-63
2023/08/01 08:33:29;;;;;;;6.55;3.85;;;19.50;99.90;;;;;;4991476;28;20179;-63
2023/08/01 08:35:55;;;;;;;4.93;3.22;;;19.50;99.90;;;;;;4991167;28;20172;-63
2023/08/01 08:38:20;;;;;;;4.95;3.80;;;19.60;99.90;;;;;;4991513;28;20180;-64
2023/08/01 08:40:59;;;;;;;6.25;3.75;;;19.60;99.90;;;;;;4991499;28;20246;-64
2023/08/01 08:43:26;;;;;;;6.75;3.92;;;19.70;99.90;;;;;;4994361;28;20187;-64
2023/08/01 08:45:59;;;;;;;5.45;3.80;;;19.70;99.90;;;;;;4994703;28;20176;-64
2023/08/01 08:48:28;;;;;;;6.07;3.60;;;19.80;99.90;;;;;;4994723;28;20191;-64
2023/08/01 08:50:57;;;;;;;4.85;3.53;;;19.80;99.90;;;;;;4994643;28;20196;-63
2023/08/01 08:53:26;;;;;;;4.90;3.30;;;19.80;99.90;;;;;;4994592;28;20199;-63
2023/08/01 08:55:52;;;;;;;6.63;3.65;;;19.90;99.90;;;;;;4994537;28;20179;-64
2023/08/01 08:58:18;;;;;;;6.57;3.85;;;19.90;99.90;;;;;;4994214;28;20199;-64
2023/08/01 09:00:44;;;;;;;5.60;3.35;;;20.00;99.90;;;;;;4994320;28;20183;-64
2023/08/01 09:03:10;;;;;;;5.80;3.08;;;20.00;99.90;;;;;;4994321;28;20199;-64
2023/08/01 09:05:48;;;;;;;3.72;2.72;;;20.10;99.90;;;;;;4994654;28;20179;-63
2023/08/01 09:08:24;;;;;;;4.45;2.78;;;20.10;99.90;;;;;;4994795;28;20214;-63
2023/08/01 09:10:49;;;;;;;4.40;3.00;;;20.10;99.90;;;;;;4994830;28;20194;-64
2023/08/01 09:13:15;;;;;;;4.88;3.20;;;20.20;99.90;;;;;;4994715;28;20203;-63
2023/08/01 09:15:45;;;;;;;5.75;3.15;;;20.30;99.90;;;;;;4993958;28;20194;-64
2023/08/01 09:18:13;;;;;;;5.25;3.22;;;20.40;99.90;;;;;;4994452;28;20179;-64
2023/08/01 09:20:50;;;;;;;4.85;3.22;;;20.40;99.90;;;;;;4994407;28;20176;-65
2023/08/01 09:23:17;;;;;;;5.35;2.95;;;20.40;99.90;;;;;;4994412;28;20175;-64
2023/08/01 09:25:43;;;;;;;4.75;2.80;;;20.50;99.90;;;;;;4996289;28;20179;-64
2023/08/01 09:28:16;;;;;;;4.70;2.60;;;20.50;99.90;;;;;;4998275;28;20175;-64
2023/08/01 09:30:50;;;;;;;3.75;2.60;;;20.60;99.90;;;;;;4991124;28;20203;-65
2023/08/01 09:33:16;;;;;;;4.70;2.60;;;20.70;99.90;;;;;;4998067;28;20172;-64
2023/08/01 09:35:45;;;;;;;3.70;2.50;;;20.70;99.90;;;;;;4998382;28;20191;-65
2023/08/01 09:38:15;;;;;;;3.80;2.60;;;20.80;99.90;;;;;;4998152;28;20237;-64
2023/08/01 09:40:44;;;;;;;4.60;2.55;;;20.90;99.90;;;;;;4997805;28;20195;-64
2023/08/01 09:43:12;;;;;;;6.05;2.40;;;21.00;99.90;;;;;;4997926;28;20237;-65
2023/08/01 09:45:37;;;;;;;4.32;2.35;;;21.10;99.90;;;;;;4997709;28;20202;-64
2023/08/01 09:48:06;;;;;;;4.30;2.40;;;21.20;99.90;;;;;;4997215;28;20187;-65
2023/08/01 09:50:34;;;;;;;3.60;2.28;;;21.30;99.90;;;;;;4988947;28;20204;-66
2023/08/01 09:53:09;;;;;;;3.25;2.28;;;21.30;99.90;;;;;;4977852;28;20428;-65
2023/08/01 09:55:35;;;;;;;3.10;2.13;;;21.40;99.90;;;;;;4977823;28;20210;-65
2023/08/01 09:58:07;;;;;;;3.80;2.30;;;21.50;99.90;;;;;;4978487;28;20172;-65
2023/08/01 10:00:33;;;;;;;3.67;2.13;;;21.50;99.90;;;;;;4978203;28;20223;-66
2023/08/01 10:03:02;;;;;;;3.20;2.28;;;21.60;99.90;;;;;;4982048;28;20199;-65
2023/08/01 10:05:38;;;;;;;3.90;2.03;;;21.60;99.90;;;;;;4997251;28;20179;-66
2023/08/01 10:08:07;;;;;;;3.13;2.10;;;21.70;99.90;;;;;;4997404;28;20295;-65
2023/08/01 10:10:35;;;;;;;4.55;2.20;;;21.80;99.90;;;;;;4997154;28;20226;-66
2023/08/01 10:13:01;;;;;;;4.05;2.13;;;21.80;99.90;;;;;;4997694;28;20171;-66
2023/08/01 10:15:30;;;;;;;5.50;3.33;;;21.90;99.90;;;;;;4997279;28;20182;-65
2023/08/01 10:17:57;;;;;;;4.15;2.60;;;22.10;99.90;;;;;;4997331;28;20171;-67
2023/08/01 10:20:23;;;;;;;3.50;2.20;;;22.20;99.90;;;;;;4993823;28;20253;-65
2023/08/01 10:22:50;;;;;;;4.80;2.35;;;22.20;99.90;;;;;;4980165;28;20261;-71
2023/08/01 10:25:22;;;;;;;5.13;2.20;;;22.30;99.90;;;;;;4978220;28;20187;-71
2023/08/01 10:28:04;;;;;;;4.90;2.47;;;22.20;99.90;;;;;;4988630;28;20195;-69
2023/08/01 10:30:32;;;;;;;3.78;2.63;;;22.30;99.90;;;;;;4997467;28;20199;-73
2023/08/01 10:33:01;;;;;;;4.40;2.38;;;22.40;99.90;;;;;;4997456;28;20199;-72
2023/08/01 10:35:37;;;;;;;3.80;2.20;;;22.50;99.90;;;;;;4996797;28;20227;-70
2023/08/01 10:38:15;;;;;;;4.25;2.03;;;22.60;99.90;;;;;;4992616;28;20199;-71
2023/08/01 10:40:42;;;;;;;3.13;1.92;;;22.70;99.90;;;;;;4977300;28;20212;-69
2023/08/01 10:43:24;;;;;;;4.13;2.13;;;22.60;99.90;;;;;;4977305;28;20207;-73
2023/08/01 10:46:05;;;;;;;5.38;2.25;;;22.60;99.90;;;;;;4978338;28;20263;-70
2023/08/01 10:48:31;;;;;;;3.50;2.05;;;22.40;99.90;;;;;;4996505;28;20294;-69
2023/08/01 10:51:02;;;;;;;2.45;1.67;;;22.00;99.90;;;;;;4996621;28;20199;-68
2023/08/01 10:53:38;;;;;;;4.07;2.08;;;21.60;99.90;;;;;;4996192;28;20192;-68
2023/08/01 10:56:07;;;;;;;3.20;2.13;;;21.20;99.90;;;;;;4992630;28;20172;-69
2023/08/01 10:58:33;;;;;;;3.92;2.25;;;21.00;99.90;;;;;;4977075;28;20203;-71
2023/08/01 11:00:59;;;;;;;3.33;2.10;;;21.00;99.90;;;;;;4977344;28;20164;-69
2023/08/01 11:03:38;;;;;;;3.00;2.00;;;21.00;99.90;;;;;;4981648;28;21617;-70
2023/08/01 11:06:04;;;;;;;3.33;2.17;;;21.00;99.90;;;;;;5015950;28;20170;-70
2023/08/01 11:08:40;;;;;;;4.43;2.22;;;21.20;99.90;;;;;;5015738;28;20195;-72
2023/08/01 11:11:14;;;;;;;3.47;2.10;;;21.30;99.90;;;;;;5011184;28;20290;-71
2023/08/01 11:13:42;;;;;;;2.83;1.85;;;21.50;99.90;;;;;;4996105;28;20163;-72
2023/08/01 11:16:11;;;;;;;4.53;2.63;;;21.70;99.90;;;;;;4996087;28;20427;-71
2023/08/01 11:18:47;;;;;;;3.08;2.33;;;21.80;99.90;;;;;;4995987;28;20202;-72
2023/08/01 11:21:26;;;;;;;3.15;2.00;;;22.10;99.90;;;;;;4996099;28;20179;-71
2023/08/01 11:23:54;;;;;;;4.10;2.50;;;22.30;99.90;;;;;;4996218;28;20172;-71
2023/08/01 11:26:20;;;;;;;3.97;1.88;;;22.60;99.90;;;;;;4995989;28;20175;-72
2023/08/01 11:28:46;;;;;;;4.03;2.13;;;22.70;99.90;;;;;;4995463;28;20179;-72
2023/08/01 11:31:14;;;;;;;5.10;2.22;;;23.00;99.90;;;;;;4995486;28;20199;-73
2023/08/01 11:33:54;;;;;;;3.63;1.80;;;23.10;99.90;;;;;;4995712;28;20167;-74
2023/08/01 11:36:22;;;;;;;2.67;1.88;;;23.30;99.90;;;;;;4995621;28;20190;-75
2023/08/01 11:38:50;;;;;;;3.15;1.83;;;23.40;99.90;;;;;;4995338;28;20203;-73
2023/08/01 11:41:16;;;;;;;2.95;1.90;;;23.60;99.90;;;;;;4995745;28;20334;-70
2023/08/01 11:43:42;;;;;;;3.70;2.17;;;23.60;99.90;;;;;;4988460;28;20180;-72
2023/08/01 11:46:10;;;;;;;3.55;2.00;;;23.60;99.90;;;;;;4976121;28;20468;-72
2023/08/01 11:48:39;;;;;;;4.30;2.10;;;23.50;99.90;;;;;;4975991;28;20219;-72
2023/08/01 11:51:05;;;;;;;3.08;1.85;;;23.40;99.90;;;;;;4976039;28;20311;-73
2023/08/01 11:53:38;;;;;;;4.03;1.80;;;23.30;99.90;;;;;;4976054;28;20192;-73
2023/08/01 11:56:09;;;;;;;3.67;1.90;;;23.10;99.90;;;;;;4975704;28;20168;-67
2023/08/01 11:58:35;;;;;;;3.05;1.85;;;23.00;99.90;;;;;;4975378;28;20215;-70
2023/08/01 12:01:12;;;;;;;3.72;1.80;;;22.70;99.90;;;;;;4975450;28;20238;-70
2023/08/01 12:03:47;;;;;;;2.65;1.80;;;22.40;99.90;;;;;;4991933;28;20176;-70
2023/08/01 12:06:16;;;;;;;2.92;1.90;;;22.00;99.90;;;;;;4991955;28;20179;-70
2023/08/01 12:08:43;;;;;;;2.83;1.50;;;21.80;99.90;;;;;;4991961;28;20180;-70
2023/08/01 12:11:21;;;;;;;2.70;1.77;;;21.70;99.90;;;;;;4991770;28;20278;-72
2023/08/01 12:13:47;;;;;;;3.83;1.60;;;21.60;99.90;;;;;;4991681;28;20176;-70
2023/08/01 12:16:19;;;;;;;4.47;1.55;;;21.70;99.90;;;;;;4989624;28;20186;-72
2023/08/01 12:18:47;;;;;;;2.53;1.55;;;21.80;99.90;;;;;;4994904;28;20198;-71
2023/08/01 12:21:13;;;;;;;2.42;1.70;;;22.00;99.90;;;;;;4995048;28;20270;-72
2023/08/01 12:23:42;;;;;;;3.05;1.55;;;22.20;99.90;;;;;;4994496;28;20322;-71
2023/08/01 12:26:08;;;;;;;2.15;1.40;;;22.50;99.90;;;;;;4994830;28;20175;-71
2023/08/01 12:28:37;;;;;;;3.72;1.50;;;22.70;99.90;;;;;;4994524;28;20199;-71
2023/08/01 12:31:03;;;;;;;2.55;1.55;;;23.00;99.90;;;;;;4994718;28;20195;-69
2023/08/01 12:33:29;;;;;;;2.00;1.40;;;23.10;99.90;;;;;;4992895;28;20207;-71
2023/08/01 12:35:55;;;;;;;3.08;1.40;;;23.30;99.90;;;;;;4991777;28;20172;-70
2023/08/01 12:38:20;;;;;;;1.95;1.15;;;23.50;99.90;;;;;;4992412;28;20254;-71
2023/08/01 12:40:46;;;;;;;3.58;1.40;;;23.50;99.90;;;;;;4994776;28;20243;-71
2023/08/01 12:43:12;;;;;;;2.50;1.20;;;23.50;99.90;;;;;;4995013;28;20178;-66
2023/08/01 12:45:40;;;;;;;2.17;1.30;;;23.50;99.90;;;;;;4997051;28;20176;-71
2023/08/01 12:48:08;;;;;;;2.78;1.40;;;23.40;99.90;;;;;;4991334;28;20203;-72
2023/08/01 12:50:33;;;;;;;2.03;1.20;;;23.30;99.90;;;;;;4975445;28;20226;-72